Time;durP1;ratioP1;P1;durP2;ratioP2;P2;SDS_P1;SDS_P2;PMS_P1;PMS_P2;Temp;Humidity;BMP_temperature;BMP_pressure;BME280_temperature;BME280_humidity;BME280_pressure;Samples;Min_cycle;Max_cycle;Signal;HPM_P1;HPM_P2
2023/05/03 00:00:12;;;;;;;;;;;;;;;9.44;100.00;96825.50;5008106;28;19952;-79
2023/05/03 00:02:39;;;;;;;;;;;;;;;9.40;100.00;96833.16;5042211;28;19972;-79
2023/05/03 00:05:08;;;;;;;;;;;;;;;9.40;100.00;96830.47;5022468;28;20057;-79
2023/05/03 00:07:35;;;;;;;;;;;;;;;9.38;100.00;96831.72;5005033;28;20003;-79
2023/05/03 00:10:02;;;;;;;;;;;;;;;9.34;100.00;96825.09;5009669;28;19950;-79
2023/05/03 00:12:30;;;;;;;;;;;;;;;9.33;100.00;96823.44;5012415;28;19968;-79
2023/05/03 00:14:56;;;;;;;;;;;;;;;9.29;100.00;96819.50;5006948;28;19954;-79
2023/05/03 00:17:23;;;;;;;;;;;;;;;9.23;100.00;96823.03;5006239;28;19955;-79
2023/05/03 00:19:54;;;;;;;;;;;;;;;9.26;100.00;96812.69;5004719;28;19990;-79
2023/05/03 00:22:21;;;;;;;;;;;;;;;9.18;100.00;96815.59;5024529;28;19990;-79
2023/05/03 00:24:49;;;;;;;;;;;;;;;9.07;100.00;96818.91;5010181;28;19951;-80
2023/05/03 00:27:16;;;;;;;;;;;;;;;9.01;100.00;96817.06;5043457;28;19968;-80
2023/05/03 00:29:45;;;;;;;;;;;;;;;8.89;100.00;96814.16;5023023;28;19961;-79
2023/05/03 00:32:12;;;;;;;;;;;;;;;8.83;100.00;96817.69;5033027;28;19967;-79
2023/05/03 00:34:39;;;;;;;;;;;;;;;8.80;100.00;96818.09;5019995;28;19955;-79
2023/05/03 00:37:05;;;;;;;;;;;;;;;8.73;100.00;96809.22;5014338;28;19950;-79
2023/05/03 00:39:32;;;;;;;;;;;;;;;8.69;100.00;96806.09;5026308;28;19973;-79
2023/05/03 00:42:00;;;;;;;;;;;;;;;8.66;100.00;96794.94;5022007;28;19949;-79
2023/05/03 00:44:26;;;;;;;;;;;;;;;8.68;100.00;96803.59;5006433;28;20039;-79
2023/05/03 00:46:56;;;;;;;;;;;;;;;8.69;100.00;96810.66;5009086;28;19956;-79
2023/05/03 00:49:24;;;;;;;;;;;;;;;8.69;100.00;96802.56;4993828;28;19957;-79
2023/05/03 00:51:52;;;;;;;;;;;;;;;8.71;100.00;96803.19;5009911;28;19968;-80
2023/05/03 00:54:18;;;;;;;;;;;;;;;8.75;100.00;96798.25;5030508;28;19964;-79
2023/05/03 00:56:45;;;;;;;;;;;;;;;8.76;100.00;96797.22;5044194;28;19951;-79
2023/05/03 00:59:12;;;;;;;;;;;;;;;8.67;100.00;96794.72;5021972;28;19957;-79
2023/05/03 01:01:39;;;;;;;;;;;;;;;8.53;100.00;96789.53;5002878;28;19969;-79
2023/05/03 01:07:09;;;;;;;;;;;;;;;8.24;100.00;96791.56;5005350;28;20008;-80
2023/05/03 01:09:39;;;;;;;;;;;;;;;8.20;100.00;96784.91;5012207;28;19959;-80
2023/05/03 01:12:13;;;;;;;;;;;;;;;8.23;100.00;96786.38;5014260;28;19962;-80
2023/05/03 01:14:45;;;;;;;;;;;;;;;8.25;100.00;96793.19;5017882;28;19999;-80
2023/05/03 01:17:12;;;;;;;;;;;;;;;8.28;100.00;96786.56;5013745;28;19953;-81
2023/05/03 01:19:44;;;;;;;;;;;;;;;8.35;100.00;96790.13;5027800;28;19956;-80
2023/05/03 01:22:17;;;;;;;;;;;;;;;8.44;100.00;96782.69;5013995;28;19948;-80
2023/05/03 01:24:45;;;;;;;;;;;;;;;8.48;100.00;96787.47;5029125;28;19947;-80
2023/05/03 01:27:13;;;;;;;;;;;;;;;8.53;100.00;96786.84;5024438;28;19964;-81
2023/05/03 01:29:40;;;;;;;;;;;;;;;8.60;100.00;96785.78;5014071;28;19956;-80
2023/05/03 01:32:14;;;;;;;;;;;;;;;8.60;100.00;96791.19;5013447;28;19965;-81
2023/05/03 01:34:44;;;;;;;;;;;;;;;8.58;100.00;96787.06;5031544;28;19964;-80
2023/05/03 01:37:13;;;;;;;;;;;;;;;8.57;100.00;96785.41;5013727;28;19948;-80
2023/05/03 01:39:48;;;;;;;;;;;;;;;8.55;100.00;96784.78;5016875;28;19949;-81
2023/05/03 01:42:17;;;;;;;;;;;;;;;8.56;100.00;96783.75;5046531;28;19948;-80
2023/05/03 01:44:44;;;;;;;;;;;;;;;8.57;100.00;96782.72;5020436;28;19958;-80
2023/05/03 01:47:13;;;;;;;;;;;;;;;8.53;100.00;96782.28;5012330;28;19959;-80
2023/05/03 01:49:40;;;;;;;;;;;;;;;8.45;100.00;96787.03;5011467;28;20048;-80
2023/05/03 01:52:07;;;;;;;;;;;;;;;8.36;100.00;96783.72;5011949;28;19967;-80
2023/05/03 01:54:34;;;;;;;;;;;;;;;8.26;100.00;96778.69;5013289;28;19959;-80
2023/05/03 01:57:01;;;;;;;;;;;;;;;8.17;100.00;96779.94;5047040;28;19954;-80
2023/05/03 01:59:29;;;;;;;;;;;;;;;8.17;100.00;96779.94;5028881;28;19955;-80
2023/05/03 02:01:57;;;;;;;;;;;;;;;8.17;100.00;96782.63;5025380;28;20051;-80
2023/05/03 02:04:23;;;;;;;;;;;;;;;8.18;100.00;96781.59;5046000;28;19948;-80
2023/05/03 02:06:51;;;;;;;;;;;;;;;8.16;100.00;96782.84;5014408;28;19968;-80
2023/05/03 02:09:18;;;;;;;;;;;;;;;8.06;100.00;96785.09;5020764;28;19972;-80
2023/05/03 02:11:45;;;;;;;;;;;;;;;7.91;100.00;96782.59;5042898;28;20052;-80
2023/05/03 02:14:12;;;;;;;;;;;;;;;7.88;100.00;96785.69;5001559;28;19951;-79
2023/05/03 02:16:40;;;;;;;;;;;;;;;7.90;100.00;96784.44;5042987;28;19956;-80
2023/05/03 02:19:07;;;;;;;;;;;;;;;7.96;100.00;96777.41;5017253;28;19952;-80
2023/05/03 02:21:34;;;;;;;;;;;;;;;7.94;100.00;96780.31;5015092;28;19958;-80
2023/05/03 02:24:02;;;;;;;;;;;;;;;7.96;100.00;96785.50;5017237;28;19970;-81
2023/05/03 02:26:29;;;;;;;;;;;;;;;7.90;100.00;96775.56;5013960;28;19953;-80
2023/05/03 02:28:56;;;;;;;;;;;;;;;7.81;100.00;96779.47;5013234;28;19975;-80
2023/05/03 02:31:24;;;;;;;;;;;;;;;7.76;100.00;96788.13;5013749;28;19979;-80
2023/05/03 02:33:53;;;;;;;;;;;;;;;7.76;100.00;96785.41;5015322;28;19961;-81
2023/05/03 02:36:21;;;;;;;;;;;;;;;7.81;100.00;96782.16;5010841;28;19952;-80
2023/05/03 02:38:49;;;;;;;;;;;;;;;7.82;100.00;96778.44;5009803;28;19958;-80
2023/05/03 02:41:16;;;;;;;;;;;;;;;7.85;100.00;96786.06;5014913;28;20049;-80
2023/05/03 02:43:43;;;;;;;;;;;;;;;7.81;100.00;96788.34;5027985;28;19958;-80
2023/05/03 02:46:10;;;;;;;;;;;;;;;7.81;100.00;96795.59;5012021;28;19982;-81
2023/05/03 02:48:37;;;;;;;;;;;;;;;7.80;100.00;96799.31;5010087;28;19955;-80
2023/05/03 02:51:06;;;;;;;;;;;;;;;7.80;100.00;96791.25;5040434;28;19997;-80
2023/05/03 02:53:32;;;;;;;;;;;;;;;7.82;100.00;96790.00;5010724;28;19961;-80
2023/05/03 02:56:02;;;;;;;;;;;;;;;7.80;100.00;96785.84;5011071;28;19947;-80
2023/05/03 02:58:29;;;;;;;;;;;;;;;7.80;100.00;96792.06;5006761;28;19956;-80
2023/05/03 03:00:57;;;;;;;;;;;;;;;7.81;100.00;96792.91;5014231;28;19956;-80
2023/05/03 03:03:27;;;;;;;;;;;;;;;7.84;100.00;96795.16;5006266;28;19956;-81
2023/05/03 03:05:53;;;;;;;;;;;;;;;7.82;100.00;96792.69;5012053;28;20016;-81
2023/05/03 03:08:22;;;;;;;;;;;;;;;7.75;100.00;96786.44;5045907;28;19966;-80
2023/05/03 03:10:50;;;;;;;;;;;;;;;7.68;100.00;96795.53;5005582;28;19949;-80
2023/05/03 03:13:17;;;;;;;;;;;;;;;7.60;100.00;96786.63;5012024;28;19960;-80
2023/05/03 03:15:43;;;;;;;;;;;;;;;7.58;100.00;96779.78;5013395;28;20072;-80
2023/05/03 03:18:10;;;;;;;;;;;;;;;7.51;100.00;96774.38;5019312;28;19955;-80
2023/05/03 03:20:37;;;;;;;;;;;;;;;7.46;100.00;96782.22;5011877;28;19964;-80
2023/05/03 03:23:04;;;;;;;;;;;;;;;7.39;100.00;96780.53;5028208;28;19994;-80
2023/05/03 03:25:33;;;;;;;;;;;;;;;7.37;100.00;96783.41;5043398;28;20108;-80
2023/05/03 03:27:59;;;;;;;;;;;;;;;7.41;100.00;96773.91;5030073;28;19943;-80
2023/05/03 03:30:27;;;;;;;;;;;;;;;7.47;100.00;96767.75;5009733;28;19960;-80
2023/05/03 03:33:02;;;;;;;;;;;;;;;7.40;100.00;96760.72;5025713;28;20076;-80
2023/05/03 03:35:36;;;;;;;;;;;;;;;7.35;100.00;96768.53;5009948;28;19950;-80
2023/05/03 03:38:04;;;;;;;;;;;;;;;7.38;100.00;96758.22;5011889;28;19952;-80
2023/05/03 03:40:33;;;;;;;;;;;;;;;7.43;100.00;96763.81;5045977;28;20014;-80
2023/05/03 03:43:00;;;;;;;;;;;;;;;7.40;100.00;96755.34;5014127;28;19954;-80
2023/05/03 03:45:27;;;;;;;;;;;;;;;7.45;100.00;96759.06;5017385;28;19994;-80
2023/05/03 03:47:56;;;;;;;;;;;;;;;7.47;100.00;96759.69;5017392;28;19947;-80
2023/05/03 03:50:24;;;;;;;;;;;;;;;7.46;100.00;96760.72;5013912;28;19950;-80
2023/05/03 03:52:51;;;;;;;;;;;;;;;7.38;100.00;96763.59;5009727;28;20086;-80
2023/05/03 03:55:18;;;;;;;;;;;;;;;7.33;100.00;96759.81;5026399;28;19953;-80
2023/05/03 03:57:49;;;;;;;;;;;;;;;7.31;100.00;96748.47;5009851;28;19998;-80
2023/05/03 04:00:16;;;;;;;;;;;;;;;7.30;100.00;96753.00;5011511;28;20004;-80
2023/05/03 04:02:49;;;;;;;;;;;;;;;7.23;100.00;96754.81;5009322;28;19955;-80
2023/05/03 04:05:18;;;;;;;;;;;;;;;7.27;100.00;96742.66;5045337;28;20067;-80
2023/05/03 04:07:46;;;;;;;;;;;;;;;7.31;100.00;96737.72;5009097;28;19950;-80
2023/05/03 04:10:14;;;;;;;;;;;;;;;7.31;100.00;96735.03;5013648;28;20013;-80
2023/05/03 04:12:41;;;;;;;;;;;;;;;7.31;100.00;96741.25;5011269;28;19966;-80
2023/05/03 04:15:11;;;;;;;;;;;;;;;7.35;100.00;96731.75;5043024;28;19953;-80
2023/05/03 04:17:39;;;;;;;;;;;;;;;7.37;100.00;96735.06;5010094;28;19959;-80
2023/05/03 04:20:09;;;;;;;;;;;;;;;7.41;100.00;96741.69;5024560;28;19957;-80
2023/05/03 04:22:39;;;;;;;;;;;;;;;7.42;100.00;96747.88;5001954;28;19951;-80
2023/05/03 04:25:08;;;;;;;;;;;;;;;7.41;100.00;96740.84;5013406;28;19965;-80
2023/05/03 04:27:37;;;;;;;;;;;;;;;7.48;100.00;96741.72;5007497;28;19948;-80
2023/05/03 04:30:05;;;;;;;;;;;;;;;7.51;100.00;96744.00;5015855;28;19955;-80
2023/05/03 04:32:36;;;;;;;;;;;;;;;7.50;100.00;96737.78;5019703;28;19989;-80
2023/05/03 04:35:09;;;;;;;;;;;;;;;7.52;100.00;96735.72;5014497;28;19950;-80
2023/05/03 04:37:37;;;;;;;;;;;;;;;7.58;100.00;96742.16;5012984;28;20099;-80
2023/05/03 04:40:07;;;;;;;;;;;;;;;7.60;100.00;96746.31;5001507;28;19948;-80
2023/05/03 04:42:35;;;;;;;;;;;;;;;7.60;100.00;96738.25;5021120;28;19972;-80
2023/05/03 04:45:03;;;;;;;;;;;;;;;7.68;100.00;96739.91;5014097;28;19960;-80
2023/05/03 04:47:30;;;;;;;;;;;;;;;7.67;100.00;96740.09;5019855;28;20051;-80
2023/05/03 04:49:58;;;;;;;;;;;;;;;7.67;100.00;96751.69;5014420;28;20029;-80
2023/05/03 04:52:25;;;;;;;;;;;;;;;7.72;100.00;96751.09;5015595;28;19961;-80
2023/05/03 04:54:54;;;;;;;;;;;;;;;7.69;100.00;96748.81;5026752;28;19991;-80
2023/05/03 04:57:22;;;;;;;;;;;;;;;7.68;100.00;96750.66;5044336;28;19954;-80
2023/05/03 04:59:49;;;;;;;;;;;;;;;7.65;100.00;96750.25;5013932;28;19972;-80
2023/05/03 05:02:18;;;;;;;;;;;;;;;7.65;100.00;96752.94;5047839;28;19950;-80
2023/05/03 05:04:44;;;;;;;;;;;;;;;7.65;100.00;96759.16;5009663;28;20005;-80
2023/05/03 05:07:13;;;;;;;;;;;;;;;7.67;100.00;96758.91;5016279;28;20075;-80
2023/05/03 05:09:41;;;;;;;;;;;;;;;7.69;100.00;96763.06;5043525;28;19993;-80
2023/05/03 05:12:08;;;;;;;;;;;;;;;7.67;100.00;96761.59;5009621;28;19951;-80
2023/05/03 05:14:40;;;;;;;;;;;;;;;7.64;100.00;96770.09;5014320;28;20052;-80
2023/05/03 05:17:08;;;;;;;;;;;;;;;7.59;100.00;96776.88;5011553;28;20047;-80
2023/05/03 05:19:35;;;;;;;;;;;;;;;7.55;100.00;96775.66;5045658;28;19951;-80
2023/05/03 05:22:02;;;;;;;;;;;;;;;7.46;100.00;96776.84;5015829;28;19964;-80
2023/05/03 05:24:43;;;;;;;;;;;;;;;7.38;100.00;96784.25;5017546;28;19962;-81
2023/05/03 05:27:12;;;;;;;;;;;;;;;7.35;100.00;96790.00;5018297;28;20002;-80
2023/05/03 05:29:39;;;;;;;;;;;;;;;7.38;100.00;96792.31;5011325;28;19960;-80
2023/05/03 05:32:06;;;;;;;;;;;;;;;7.37;100.00;96799.53;5012641;28;20041;-80
2023/05/03 05:34:34;;;;;;;;;;;;;;;7.33;100.00;96803.63;5017159;28;20011;-80
2023/05/03 05:37:01;;;;;;;;;;;;;;;7.30;100.00;96806.75;5014225;28;19945;-80
2023/05/03 05:39:28;;;;;;;;;;;;;;;7.33;100.00;96809.00;5011593;28;19954;-80
2023/05/03 05:41:57;;;;;;;;;;;;;;;7.35;100.00;96806.97;5031230;28;20037;-80
2023/05/03 05:44:24;;;;;;;;;;;;;;;7.34;100.00;96812.53;5014038;28;19992;-80
2023/05/03 05:46:51;;;;;;;;;;;;;;;7.44;100.00;96805.75;5011789;28;19960;-80
2023/05/03 05:49:18;;;;;;;;;;;;;;;7.54;100.00;96814.28;5014713;28;19959;-80
2023/05/03 05:51:45;;;;;;;;;;;;;;;7.59;100.00;96816.38;5008564;28;19952;-80
2023/05/03 05:54:13;;;;;;;;;;;;;;;7.49;100.00;96821.28;5015169;28;19965;-80
2023/05/03 05:56:40;;;;;;;;;;;;;;;7.38;100.00;96822.69;5013135;28;19957;-80
2023/05/03 05:59:09;;;;;;;;;;;;;;;7.32;100.00;96820.78;5011919;28;20014;-80
2023/05/03 06:01:40;;;;;;;;;;;;;;;7.35;100.00;96820.41;5014138;28;19972;-80
2023/05/03 06:04:08;;;;;;;;;;;;;;;7.36;100.00;96816.69;5009754;28;20041;-80
2023/05/03 06:06:35;;;;;;;;;;;;;;;7.36;100.00;96818.53;5013200;28;19973;-80
2023/05/03 06:09:02;;;;;;;;;;;;;;;7.31;100.00;96821.84;5006481;28;19965;-80
2023/05/03 06:11:30;;;;;;;;;;;;;;;7.32;100.00;96831.53;5001023;28;19952;-80
2023/05/03 06:13:57;;;;;;;;;;;;;;;7.37;100.00;96826.41;5010001;28;20108;-80
2023/05/03 06:16:26;;;;;;;;;;;;;;;7.44;100.00;96835.31;5013114;28;19946;-80
2023/05/03 06:18:53;;;;;;;;;;;;;;;7.49;100.00;96830.16;5025609;28;20045;-81
2023/05/03 06:21:20;;;;;;;;;;;;;;;7.48;100.00;96827.72;5011074;28;20040;-80
2023/05/03 06:23:47;;;;;;;;;;;;;;;7.50;100.00;96831.84;5010152;28;19958;-80
2023/05/03 06:26:16;;;;;;;;;;;;;;;7.51;100.00;96838.03;5028676;28;19950;-80
2023/05/03 06:28:46;;;;;;;;;;;;;;;7.52;100.00;96848.59;5013602;28;19948;-80
2023/05/03 06:31:13;;;;;;;;;;;;;;;7.55;100.00;96837.47;5011845;28;20000;-80
2023/05/03 06:33:41;;;;;;;;;;;;;;;7.58;100.00;96834.34;5003575;28;20003;-80
2023/05/03 06:36:10;;;;;;;;;;;;;;;7.57;100.00;96838.06;5023001;28;19950;-80
2023/05/03 06:38:37;;;;;;;;;;;;;;;7.59;100.00;96841.38;5043140;28;19957;-80
2023/05/03 06:41:04;;;;;;;;;;;;;;;7.59;100.00;96843.25;5012733;28;19985;-80
2023/05/03 06:43:31;;;;;;;;;;;;;;;7.60;100.00;96843.06;5013958;28;20031;-80
2023/05/03 06:46:03;;;;;;;;;;;;;;;7.56;100.00;96840.97;5012667;28;19972;-80
2023/05/03 06:48:30;;;;;;;;;;;;;;;7.51;100.00;96836.19;5019371;28;19958;-80
2023/05/03 06:50:58;;;;;;;;;;;;;;;7.53;100.00;96844.88;5008869;28;19950;-80
2023/05/03 06:53:25;;;;;;;;;;;;;;;7.55;100.00;96836.63;5012030;28;20019;-80
2023/05/03 06:55:51;;;;;;;;;;;;;;;7.60;100.00;96836.84;5039371;28;19951;-80
2023/05/03 06:58:18;;;;;;;;;;;;;;;7.59;100.00;96829.81;5030604;28;19992;-80
2023/05/03 07:00:45;;;;;;;;;;;;;;;7.59;100.00;96824.44;5009781;28;19952;-80
2023/05/03 07:03:12;;;;;;;;;;;;;;;7.63;100.00;96820.31;5010203;28;20018;-80
2023/05/03 07:05:39;;;;;;;;;;;;;;;7.65;100.00;96823.66;5011161;28;20067;-80
2023/05/03 07:08:07;;;;;;;;;;;;;;;7.68;100.00;96820.53;5018389;28;20084;-80
2023/05/03 07:10:34;;;;;;;;;;;;;;;7.70;100.00;96807.75;5013619;28;20044;-80
2023/05/03 07:13:00;;;;;;;;;;;;;;;7.74;100.00;96810.88;5042234;28;19952;-80
2023/05/03 07:15:28;;;;;;;;;;;;;;;7.75;100.00;96799.88;5030104;28;19947;-80
2023/05/03 07:17:55;;;;;;;;;;;;;;;7.79;100.00;96808.41;5025045;28;20075;-80
2023/05/03 07:20:21;;;;;;;;;;;;;;;7.81;100.00;96799.09;5010194;28;19955;-80
2023/05/03 07:22:48;;;;;;;;;;;;;;;8.05;100.00;96792.34;5009923;28;19953;-80
2023/05/03 07:25:16;;;;;;;;;;;;;;;8.57;100.00;96777.31;5028496;28;19950;-80
2023/05/03 07:27:43;;;;;;;;;;;;;;;9.04;100.00;96787.00;5004824;28;20047;-80
2023/05/03 07:30:10;;;;;;;;;;;;;;;9.38;100.00;96789.41;5006009;28;19964;-80
2023/05/03 07:32:37;;;;;;;;;;;;;;;9.85;100.00;96781.97;5006812;28;20019;-80
2023/05/03 07:35:04;;;;;;;;;;;;;;;10.31;100.00;96776.34;5011266;28;20120;-80
2023/05/03 07:37:31;;;;;;;;;;;;;;;10.68;100.00;96766.50;5002715;28;19952;-80
2023/05/03 07:39:58;;;;;;;;;;;;;;;10.79;100.00;96759.56;5028829;28;19948;-80
2023/05/03 07:42:26;;;;;;;;;;;;;;;10.95;100.00;96759.00;5011097;28;19963;-80
2023/05/03 07:44:54;;;;;;;;;;;;;;;11.05;100.00;96751.22;5011983;28;19949;-80
2023/05/03 07:47:21;;;;;;;;;;;;;;;11.31;100.00;96755.50;5016674;28;19953;-80
2023/05/03 07:49:49;;;;;;;;;;;;;;;11.42;100.00;96740.41;5011181;28;19949;-81
2023/05/03 07:52:17;;;;;;;;;;;;;;;11.84;100.00;96736.78;5013733;28;19954;-81
2023/05/03 07:54:44;;;;;;;;;;;;;;;11.94;100.00;96728.09;5013328;28;19986;-80
2023/05/03 07:57:11;;;;;;;;;;;;;;;11.98;100.00;96727.44;5011686;28;19957;-81
2023/05/03 07:59:39;;;;;;;;;;;;;;;12.01;100.00;96720.72;5028186;28;19962;-80
2023/05/03 08:02:07;;;;;;;;;;;;;;;12.01;100.00;96721.53;5044372;28;19985;-81
2023/05/03 08:04:34;;;;;;;;;;;;;;;12.36;100.00;96715.41;5017857;28;19952;-81
2023/05/03 08:07:01;;;;;;;;;;;;;;;12.73;100.00;96719.59;5012539;28;19970;-81
2023/05/03 08:09:28;;;;;;;;;;;;;;;13.08;100.00;96710.63;5028017;28;20034;-81
2023/05/03 08:11:55;;;;;;;;;;;;;;;13.40;98.91;96709.19;5043904;28;19956;-81
2023/05/03 08:14:22;;;;;;;;;;;;;;;13.67;100.00;96712.19;5015480;28;19961;-81
2023/05/03 08:16:50;;;;;;;;;;;;;;;14.00;97.32;96706.06;5018325;28;19977;-81
2023/05/03 08:19:17;;;;;;;;;;;;;;;14.28;89.37;96706.03;5033758;28;19949;-81
2023/05/03 08:21:45;;;;;;;;;;;;;;;14.51;90.00;96696.94;5032387;28;19961;-81
2023/05/03 08:24:12;;;;;;;;;;;;;;;14.65;91.05;96692.00;5047943;28;19955;-81
2023/05/03 08:26:40;;;;;;;;;;;;;;;14.80;91.13;96686.78;5015259;28;19957;-81
2023/05/03 08:29:07;;;;;;;;;;;;;;;15.00;88.22;96676.22;5014275;28;19958;-81
2023/05/03 08:31:34;;;;;;;;;;;;;;;15.13;85.38;96677.78;5032321;28;19947;-80
2023/05/03 08:34:05;;;;;;;;;;;;;;;15.25;83.61;96662.16;5010077;28;19974;-81
2023/05/03 08:36:33;;;;;;;;;;;;;;;15.39;79.29;96668.06;5025030;28;19959;-81
2023/05/03 08:38:59;;;;;;;;;;;;;;;15.52;83.36;96657.59;5014965;28;19957;-81
2023/05/03 08:41:28;;;;;;;;;;;;;;;15.56;82.20;96654.41;5013134;28;20027;-81
2023/05/03 08:43:55;;;;;;;;;;;;;;;15.59;84.46;96651.16;5032473;28;19975;-80
2023/05/03 08:46:22;;;;;;;;;;;;;;;15.72;82.05;96646.16;5016703;28;20019;-81
2023/05/03 08:48:49;;;;;;;;;;;;;;;15.87;81.54;96646.31;5019581;28;19953;-81
2023/05/03 08:51:18;;;;;;;;;;;;;;;15.92;78.97;96639.28;5029689;28;19954;-81
2023/05/03 08:53:45;;;;;;;;;;;;;;;15.86;80.84;96641.94;5045376;28;19962;-81
2023/05/03 08:56:12;;;;;;;;;;;;;;;15.92;79.08;96636.53;5013397;28;20021;-81
2023/05/03 08:58:39;;;;;;;;;;;;;;;15.96;81.63;96626.78;5016364;28;19948;-81
2023/05/03 09:01:07;;;;;;;;;;;;;;;16.08;85.46;96625.53;5011207;28;19949;-81
2023/05/03 09:03:34;;;;;;;;;;;;;;;16.28;84.90;96627.63;5018644;28;19948;-81
2023/05/03 09:06:01;;;;;;;;;;;;;;;15.95;91.26;96617.81;5012385;28;19968;-81
2023/05/03 09:08:30;;;;;;;;;;;;;;;16.03;90.90;96620.06;5007852;28;19965;-81
2023/05/03 09:10:57;;;;;;;;;;;;;;;15.92;90.07;96612.03;5011479;28;20057;-81
2023/05/03 09:13:29;;;;;;;;;;;;;;;16.13;91.70;96606.53;5009666;28;20022;-81
2023/05/03 09:15:56;;;;;;;;;;;;;;;16.46;92.09;96607.34;5006559;28;19951;-81
2023/05/03 09:18:25;;;;;;;;;;;;;;;16.44;90.01;96613.06;5042342;28;19949;-81
2023/05/03 09:20:52;;;;;;;;;;;;;;;16.36;87.59;96607.25;5011193;28;20001;-81
2023/05/03 09:23:20;;;;;;;;;;;;;;;16.17;90.20;96610.38;5008469;28;19998;-81
2023/05/03 09:25:49;;;;;;;;;;;;;;;16.29;91.79;96607.47;5012766;28;19948;-81
2023/05/03 09:28:16;;;;;;;;;;;;;;;16.29;91.44;96612.94;5011317;28;19952;-81
2023/05/03 09:30:43;;;;;;;;;;;;;;;16.22;88.44;96615.88;5044354;28;19952;-81
2023/05/03 09:33:10;;;;;;;;;;;;;;;16.14;88.28;96610.91;5009215;28;19972;-81
2023/05/03 09:35:37;;;;;;;;;;;;;;;16.28;91.13;96603.94;5011781;28;19986;-81
2023/05/03 09:38:04;;;;;;;;;;;;;;;16.32;88.16;96612.44;5009562;28;19951;-81
2023/05/03 09:40:31;;;;;;;;;;;;;;;16.06;87.78;96613.28;5045431;28;19949;-80
2023/05/03 09:43:10;;;;;;;;;;;;;;;16.05;86.53;96606.19;5009845;28;20030;-81
2023/05/03 09:45:37;;;;;;;;;;;;;;;16.08;89.42;96606.47;5011886;28;20028;-81
2023/05/03 09:48:06;;;;;;;;;;;;;;;16.06;88.58;96602.38;5007626;28;19961;-80
2023/05/03 09:50:33;;;;;;;;;;;;;;;16.20;93.40;96609.03;5041025;28;19990;-80
2023/05/03 09:53:02;;;;;;;;;;;;;;;16.23;94.27;96606.63;5045125;28;19955;-81
2023/05/03 09:55:32;;;;;;;;;;;;;;;16.37;94.94;96604.28;5009739;28;19964;-80
2023/05/03 09:57:59;;;;;;;;;;;;;;;16.58;91.28;96610.72;5009164;28;19950;-81
2023/05/03 10:00:29;;;;;;;;;;;;;;;16.72;86.46;96622.84;5043582;28;19949;-81
2023/05/03 10:02:58;;;;;;;;;;;;;;;16.77;84.21;96614.69;5002635;28;19978;-80
2023/05/03 10:05:26;;;;;;;;;;;;;;;16.69;86.70;96607.00;5008435;28;19977;-81
2023/05/03 10:07:55;;;;;;;;;;;;;;;16.87;85.99;96613.94;5011188;28;19945;-81
2023/05/03 10:10:22;;;;;;;;;;;;;;;16.84;85.80;96615.25;5010075;28;19952;-81
2023/05/03 10:12:52;;;;;;;;;;;;;;;16.96;87.14;96624.06;5008970;28;20005;-81
2023/05/03 10:15:21;;;;;;;;;;;;;;;17.02;90.09;96627.66;5037619;28;19963;-80
2023/05/03 10:17:51;;;;;;;;;;;;;;;16.94;84.63;96611.78;5008564;28;19954;-80
2023/05/03 10:20:25;;;;;;;;;;;;;;;17.06;80.29;96612.41;5031580;28;19944;-80
2023/05/03 10:23:07;;;;;;;;;;;;;;;17.33;85.38;96615.81;5011567;28;19955;-80
2023/05/03 10:25:35;;;;;;;;;;;;;;;17.37;88.83;96624.28;5010655;28;19969;-80
2023/05/03 10:28:02;;;;;;;;;;;;;;;17.38;86.31;96618.56;5003627;28;19949;-81
2023/05/03 10:30:31;;;;;;;;;;;;;;;17.47;87.23;96618.88;5015404;28;19950;-81
2023/05/03 10:33:00;;;;;;;;;;;;;;;17.48;88.89;96615.06;5010252;28;19952;-81
2023/05/03 10:35:27;;;;;;;;;;;;;;;17.70;90.01;96623.06;5008710;28;20005;-80
2023/05/03 10:37:55;;;;;;;;;;;;;;;17.58;91.29;96615.09;5013248;28;19963;-81
2023/05/03 10:40:22;;;;;;;;;;;;;;;17.71;90.17;96627.44;5008789;28;19986;-81
2023/05/03 10:42:55;;;;;;;;;;;;;;;17.68;89.13;96622.53;5007915;28;20048;-81
2023/05/03 10:45:27;;;;;;;;;;;;;;;17.83;88.43;96621.75;5009136;28;19949;-81
2023/05/03 10:48:12;;;;;;;;;;;;;;;18.04;89.18;96623.41;5042478;28;19973;-81
2023/05/03 10:50:41;;;;;;;;;;;;;;;18.01;86.84;96622.06;5000916;28;19954;-81
2023/05/03 10:53:08;;;;;;;;;;;;;;;17.92;87.77;96631.88;5010466;28;19949;-81
2023/05/03 10:55:35;;;;;;;;;;;;;;;17.87;87.40;96633.75;5011271;28;20059;-82
2023/05/03 10:58:02;;;;;;;;;;;;;;;17.87;88.34;96617.38;5017003;28;19949;-82
2023/05/03 11:00:31;;;;;;;;;;;;;;;17.88;88.83;96619.84;5005324;28;19970;-82
2023/05/03 11:03:10;;;;;;;;;;;;;;;17.78;88.78;96617.91;5003562;28;19954;-82
2023/05/03 11:05:37;;;;;;;;;;;;;;;17.78;86.86;96619.81;5009287;28;20000;-82
2023/05/03 11:08:09;;;;;;;;;;;;;;;17.83;88.13;96619.84;4992358;28;19969;-82
2023/05/03 11:10:36;;;;;;;;;;;;;;;18.01;88.97;96615.78;5011878;28;19991;-82
2023/05/03 11:13:03;;;;;;;;;;;;;;;18.14;86.04;96618.78;5006728;28;19951;-82
2023/05/03 11:15:30;;;;;;;;;;;;;;;18.14;86.42;96618.78;5000326;28;19961;-81
2023/05/03 11:17:56;;;;;;;;;;;;;;;18.12;85.47;96615.50;5010437;28;19957;-81
2023/05/03 11:20:23;;;;;;;;;;;;;;;18.15;87.35;96620.44;5012723;28;19947;-82
2023/05/03 11:22:50;;;;;;;;;;;;;;;18.35;87.10;96613.34;5010760;28;19949;-82
2023/05/03 11:25:20;;;;;;;;;;;;;;;18.34;85.81;96606.25;5006268;28;22089;-81
2023/05/03 11:27:47;;;;;;;;;;;;;;;18.39;85.63;96607.03;5010008;28;19951;-82
2023/05/03 11:30:14;;;;;;;;;;;;;;;18.51;84.98;96609.50;5025538;28;19949;-81
2023/05/03 11:32:42;;;;;;;;;;;;;;;18.52;86.65;96608.44;5033519;28;19984;-81
2023/05/03 11:35:10;;;;;;;;;;;;;;;18.51;84.04;96615.81;5009138;28;20048;-82
2023/05/03 11:37:37;;;;;;;;;;;;;;;18.68;86.51;96606.53;5009207;28;19950;-82
2023/05/03 11:40:05;;;;;;;;;;;;;;;18.73;84.49;96609.25;5010552;28;20020;-82
2023/05/03 11:42:33;;;;;;;;;;;;;;;18.73;85.42;96612.81;5002182;28;19950;-82
2023/05/03 11:45:02;;;;;;;;;;;;;;;18.80;84.35;96616.06;5010412;28;19955;-82
2023/05/03 11:47:29;;;;;;;;;;;;;;;18.92;84.93;96613.06;5042466;28;19949;-81
2023/05/03 11:49:56;;;;;;;;;;;;;;;19.01;82.94;96621.50;5010959;28;19947;-82
2023/05/03 11:52:24;;;;;;;;;;;;;;;18.88;82.14;96615.50;5003486;28;20041;-82
2023/05/03 11:54:51;;;;;;;;;;;;;;;18.64;84.41;96613.63;5002131;28;19963;-82
2023/05/03 11:57:18;;;;;;;;;;;;;;;18.40;84.18;96610.59;5041991;28;19949;-81
2023/05/03 11:59:48;;;;;;;;;;;;;;;18.50;86.21;96605.97;5008552;28;19950;-82
2023/05/03 12:02:16;;;;;;;;;;;;;;;18.83;86.71;96615.53;5007758;28;19995;-82
2023/05/03 12:04:43;;;;;;;;;;;;;;;18.95;83.20;96609.78;5007534;28;19964;-82
2023/05/03 12:07:12;;;;;;;;;;;;;;;18.99;83.24;96610.03;5044005;28;20007;-82
2023/05/03 12:09:39;;;;;;;;;;;;;;;18.86;85.98;96606.78;5004915;28;19975;-82
2023/05/03 12:12:06;;;;;;;;;;;;;;;18.99;82.14;96612.75;5011406;28;19947;-82
2023/05/03 12:15:04;;;;;;;;;;;;;;;19.02;81.20;96604.00;5011313;28;19952;-82
2023/05/03 12:17:36;;;;;;;;;;;;;;;19.28;82.47;96603.66;4951855;28;19953;-81
2023/05/03 12:20:16;;;;;;;;;;;;;;;19.57;79.80;96606.56;4999233;28;19948;-81
2023/05/03 12:22:43;;;;;;;;;;;;;;;19.72;80.75;96605.69;5024571;28;19960;-81
2023/05/03 12:25:10;;;;;;;;;;;;;;;19.48;77.96;96593.75;5008495;28;19955;-81
2023/05/03 12:27:37;;;;;;;;;;;;;;;19.68;79.50;96588.16;5008054;28;19984;-81
2023/05/03 12:30:04;;;;;;;;;;;;;;;19.77;76.67;96585.66;5045075;28;19951;-82
2023/05/03 12:32:30;;;;;;;;;;;;;;;19.82;77.28;96580.16;5012772;28;19991;-82
2023/05/03 12:34:58;;;;;;;;;;;;;;;19.77;76.93;96581.00;5028637;28;19964;-81
2023/05/03 12:37:25;;;;;;;;;;;;;;;19.84;76.58;96586.16;5045276;28;19953;-82
2023/05/03 12:39:52;;;;;;;;;;;;;;;19.93;76.73;96571.56;5009295;28;19948;-82
2023/05/03 12:42:19;;;;;;;;;;;;;;;19.93;76.90;96568.00;5044130;28;19957;-82
2023/05/03 12:44:45;;;;;;;;;;;;;;;19.98;78.06;96563.34;5000143;28;19957;-82
2023/05/03 12:47:12;;;;;;;;;;;;;;;20.09;77.61;96564.06;5012391;28;19994;-82
2023/05/03 12:49:39;;;;;;;;;;;;;;;20.12;75.80;96562.66;5015187;28;19954;-82
2023/05/03 12:52:07;;;;;;;;;;;;;;;20.28;75.27;96554.03;5015429;28;20002;-82